This is the latest recevied weather packets stored in our database for station/object R8AHC-W5. If no packets are shown the sender has not sent any weather packets the latest 10 day(s).
| Time | Temp. | Humidity | Pressure | Rain* | Wind** | Luminosity | Snow |
|---|---|---|---|---|---|---|---|
| 1777924502 | 11.11° C | 91% | 1009 hPa | - | 1.34 m/s, 25° | - | - |
| 1777920902 | 11.67° C | 88% | 1009 hPa | - | 1.79 m/s, 9° | - | - |
| 1777917302 | 12.22° C | 85% | 1010 hPa | - | 1.34 m/s, 348° | - | - |
| 1777913702 | 12.22° C | 83% | 1011 hPa | - | 2.24 m/s, 298° | - | - |
| 1777910102 | 12.78° C | 81% | 1011 hPa | - | 2.68 m/s, 265° | - | - |
| 1777906501 | 13.89° C | 78% | 1010 hPa | - | 3.13 m/s, 256° | - | - |
| 1777902902 | 15° C | 72% | 1010 hPa | - | 4.02 m/s, 252° | - | - |
| 1777899302 | 16.11° C | 68% | 1010 hPa | - | 4.92 m/s, 250° | - | - |
| 1777895702 | 17.22° C | 64% | 1010 hPa | - | 5.81 m/s, 239° | - | - |
| 1777892102 | 17.78° C | 59% | 1009 hPa | - | 5.81 m/s, 239° | - | - |
| 1777888502 | 17.78° C | 60% | 1009 hPa | - | 6.26 m/s, 235° | - | - |
| 1777884902 | 16.67° C | 70% | 1010 hPa | - | 6.26 m/s, 233° | - | - |
| 1777881302 | 16.11° C | 74% | 1010 hPa | - | 7.15 m/s, 228° | - | - |
| 1777877702 | 15.56° C | 80% | 1010 hPa | - | 6.71 m/s, 223° | - | - |
| 1777874101 | 16.11° C | 78% | 1010 hPa | - | 7.15 m/s, 220° | - | - |
| 1777870502 | 14.44° C | 79% | 1011 hPa | - | 5.81 m/s, 209° | - | - |
| 1777866902 | 13.33° C | 82% | 1011 hPa | - | 6.26 m/s, 202° | - | - |
| 1777863302 | 12.22° C | 84% | 1011 hPa | - | 6.71 m/s, 184° | - | - |
| 1777859702 | 11.11° C | 90% | 1012 hPa | - | 5.81 m/s, 175° | - | - |
| 1777856102 | 10.56° C | 94% | 1012 hPa | - | 5.36 m/s, 169° | - | - |
| 1777852502 | 9.44° C | 95% | 1013 hPa | - | 6.26 m/s, 151° | - | - |
| 1777848902 | 8.33° C | 97% | 1015 hPa | - | 5.81 m/s, 141° | - | - |
| 1777845302 | 8.33° C | 95% | 1015 hPa | - | 4.92 m/s, 129° | - | - |
| 1777841703 | 7.78° C | 92% | 1017 hPa | - | 4.47 m/s, 125° | - | - |
| 1777838101 | 7.78° C | 91% | 1018 hPa | - | 3.13 m/s, 118° | - | - |
* Rain since midnight (hover to see other rain measurements)
** Current wind speed in m/s (hover to see current wind gust speed)